Latest Weather Observations for Kalumburu

IDD60801

Issued at 11:21 pm CST Monday 6 February 2023 (issued every 10 minutes, with the page automatically refreshed every 10 minutes)

About weather observations | Map of weather stations | Latest weather observations for NT | Other Formats
Station Details ID: 001019 Name: KALUMBURU Lat: -14.30 Lon: 126.65 Height: 23.0 m
Data from the previous 72 hours. | See also: Recent months at Kalumburu
Date/Time
CST
Temp
°C
App
Temp
°C
Dew
Point
°C
Rel
Hum
%
Delta-T
°C
Wind Press
QNH
hPa
Press
MSL
hPa
Rain since
9am
mm
Dir  Spd
km/h
Gust
km/h
Spd
kts
Gust
kts
06/11:00pm 26.5 32.5 24.2 87 1.6 CALM 0 4 0 2 1008.3 1008.1 0.0
06/10:30pm 27.0 31.8 24.1 84 2.0 N 6 7 3 4 1008.1 1007.9 0.0
06/10:00pm 27.7 32.4 23.9 80 2.6 N 6 9 3 5 1007.9 1007.7 0.0
06/09:30pm 28.1 32.2 23.9 78 2.9 N 9 11 5 6 1007.7 1007.5 0.0
06/09:00pm 28.5 32.6 23.9 76 3.2 N 9 13 5 7 1007.4 1007.2 0.0
06/08:30pm 28.8 32.4 23.7 74 3.5 N 11 17 6 9 1007.2 1007.0 0.0
06/08:00pm 29.1 32.2 23.5 72 3.9 N 13 24 7 13 1006.8 1006.6 0.0
06/07:30pm 29.5 32.2 23.4 69 4.2 N 15 22 8 12 1006.4 1006.2 0.0
06/07:00pm 30.0 32.2 23.2 67 4.7 N 17 24 9 13 1005.9 1005.7 0.0
06/06:30pm 30.8 33.4 24.0 67 4.7 N 17 24 9 13 1005.3 1005.1 0.0
06/06:00pm 31.2 34.5 23.8 64 5.1 NNW 13 20 7 11 1004.9 1004.7 0.0
06/05:30pm 31.5 33.9 23.6 63 5.5 N 17 24 9 13 1004.8 1004.6 0.0
06/05:00pm 31.9 34.2 23.4 60 5.9 N 17 24 9 13 1004.7 1004.5 0.0
06/04:30pm 33.0 35.6 22.7 54 7.1 NNW 13 19 7 10 1004.7 1004.5 0.0
06/04:00pm 33.2 36.5 23.8 57 6.6 NNW 13 17 7 9 1004.8 1004.6 0.0
06/03:30pm 33.2 36.5 23.2 55 6.9 N 11 15 6 8 1005.0 1004.8 0.0
06/03:00pm 31.9 34.9 23.4 60 5.9 NNE 13 19 7 10 1005.3 1005.1 0.0
06/02:30pm 33.2 36.8 22.3 52 7.5 WNW 7 11 4 6 1005.5 1005.3 0.0
06/02:00pm 31.8 36.3 23.9 63 5.5 NW 7 13 4 7 1006.0 1005.8 0.0
06/01:30pm 32.8 36.5 23.2 57 6.7 NW 9 15 5 8 1006.3 1006.1 0.0
06/01:00pm 33.2 38.2 23.8 57 6.6 SW 4 7 2 4 1006.9 1006.7 0.0
06/12:30pm 32.6 36.7 23.3 58 6.4 SW 7 9 4 5 1007.4 1007.2 0.0
06/12:00pm 32.3 37.0 23.3 59 6.2 SW 4 7 2 4 1007.9 1007.7 0.0
06/11:30am 32.0 37.1 24.1 63 5.5 S 4 9 2 5 1008.2 1008.0 0.0
06/11:00am 30.8 35.2 23.5 65 5.0 WSW 6 11 3 6 1008.5 1008.3 0.0
06/10:30am 30.0 34.4 23.4 67 4.6 SSW 6 9 3 5 1008.4 1008.2 15.0
06/10:00am 30.0 35.5 25.3 76 3.3 S 6 11 3 6 1008.5 1008.3 15.0
06/09:30am 28.7 33.0 23.6 74 3.5 SSE 7 11 4 6 1008.3 1008.1 15.0
06/09:00am 28.2 33.3 24.6 81 2.5 SSW 6 7 3 4 1008.2 1008.0 15.0
06/08:30am 27.1 33.3 24.6 86 1.7 CALM 0 0 0 0 1008.0 1007.8 15.0
06/08:00am 26.4 32.5 24.4 89 1.4 CALM 0 0 0 0 1007.9 1007.7 15.0
06/07:30am 24.7 30.4 23.7 94 0.7 CALM 0 0 0 0 1007.6 1007.4 15.0
06/07:00am 24.3 29.6 23.1 93 0.8 CALM 0 0 0 0 1007.3 1007.1 15.0
06/06:30am 24.6 30.2 23.6 94 0.7 CALM 0 0 0 0 1006.9 1006.7 15.0
06/06:00am 24.9 30.6 23.7 93 0.8 CALM 0 0 0 0 1006.6 1006.4 15.0
06/05:30am 25.0 30.7 23.8 93 0.8 CALM 0 0 0 0 1006.4 1006.2 15.0
06/05:00am 25.1 30.9 23.9 93 0.8 CALM 0 0 0 0 1006.3 1006.1 15.0
06/04:30am 25.1 31.0 24.1 94 0.7 CALM 0 0 0 0 1006.2 1006.0 15.0
06/04:00am 24.9 30.7 23.9 94 0.7 CALM 0 0 0 0 1006.2 1006.0 15.0
06/03:30am 24.9 30.7 23.9 94 0.7 CALM 0 0 0 0 1006.3 1006.1 15.0
06/03:00am 25.0 30.7 23.8 93 0.8 CALM 0 0 0 0 1006.4 1006.2 15.0
06/02:30am 25.1 30.8 23.7 92 1.0 CALM 0 0 0 0 1006.6 1006.4 15.0
06/02:00am 25.2 30.9 23.8 92 1.0 CALM 0 6 0 3 1006.7 1006.5 15.0
06/01:30am 25.2 29.9 24.0 93 0.8 S 6 9 3 5 1007.1 1006.9 15.0
06/01:00am 25.1 30.8 23.7 92 1.0 CALM 0 0 0 0 1007.3 1007.1 15.0
06/12:30am 25.2 31.0 24.0 93 0.8 CALM 0 0 0 0 1007.5 1007.3 15.0
06/12:00am 25.1 30.4 23.7 92 1.0 SSW 2 6 1 3 1007.5 1007.3 15.0
 
Date/Time
CST
Temp
°C
App
Temp
°C
Dew
Point
°C
Rel
Hum
%
Delta-T
°C
Wind Press
QNH
hPa
Press
MSL
hPa
Rain since
9am
mm
Dir  Spd
km/h
Gust
km/h
Spd
kts
Gust
kts
05/11:30pm 25.1 29.9 23.5 91 1.1 S 4 7 2 4 1007.7 1007.5 15.0
05/11:00pm 25.1 30.9 23.9 93 0.8 CALM 0 0 0 0 1007.7 1007.5 15.0
05/10:30pm 24.9 29.3 23.5 92 1.0 SW 6 7 3 4 1007.6 1007.4 15.0
05/10:00pm 24.9 30.5 23.5 92 1.0 CALM 0 0 0 0 1007.5 1007.3 15.0
05/09:30pm 24.7 29.2 22.9 90 1.2 E 4 6 2 3 1007.1 1006.9 15.0
05/09:00pm 24.6 28.7 23.0 91 1.1 SSE 6 7 3 4 1007.1 1006.9 14.8
05/08:30pm 24.7 28.8 23.3 92 1.0 S 7 9 4 5 1007.0 1006.8 14.8
05/08:00pm 24.7 28.2 22.8 89 1.3 WNW 9 13 5 7 1006.6 1006.4 14.8
05/07:30pm 24.7 27.3 22.6 88 1.4 NNE 13 20 7 11 1006.5 1006.3 7.0
05/07:00pm 25.0 29.5 23.6 92 1.0 SSE 6 7 3 4 1005.6 1005.4 4.6
05/06:30pm 25.2 29.7 23.6 91 1.1 SW 6 9 3 5 1005.4 1005.2 4.4
05/06:11pm 25.5 29.9 23.4 88 1.4 SSW 6 7 3 4 1005.6 1005.4 1.6
05/06:01pm 25.5 29.7 23.2 87 1.6 S 6 9 3 5 1005.3 1005.1 1.6
05/06:00pm 25.5 29.9 23.4 88 1.4 S 6 9 3 5 1005.3 1005.1 1.6
05/05:43pm 25.5 28.2 22.8 85 1.8 SSE 13 20 7 11 1005.3 1005.1 1.6
05/05:33pm 26.0 27.9 22.7 82 2.2 SE 17 26 9 14 1005.2 1005.0 1.6
05/05:32pm 26.0 27.9 22.7 82 2.2 ESE 17 26 9 14 1005.2 1005.0 1.6
05/05:30pm 25.8 27.7 22.7 83 2.1 ESE 17 32 9 17 1005.1 1004.9 1.6
05/05:12pm 24.7 26.3 22.8 89 1.3 SSE 19 30 10 16 1004.7 1004.5 1.4
05/05:08pm 25.0 26.2 22.5 86 1.7 SE 20 30 11 16 1004.7 1004.5 1.4
05/05:00pm 26.4 27.3 22.0 77 2.9 ESE 20 37 11 20 1004.7 1004.5 0.0
05/04:58pm 26.6 27.3 21.6 74 3.3 ESE 20 37 11 20 1004.6 1004.4 0.0
05/04:30pm 30.8 34.0 24.4 68 4.5 NNW 15 26 8 14 1004.1 1003.9 0.0
05/04:00pm 32.3 37.0 26.1 70 4.4 N 13 20 7 11 1004.1 1003.9 0.0
05/03:30pm 31.8 34.5 24.1 63 5.4 N 17 22 9 12 1004.0 1003.8 0.0
05/03:00pm 31.5 34.8 23.9 64 5.3 N 13 20 7 11 1004.2 1004.0 0.0
05/02:30pm 32.2 34.9 22.9 58 6.4 NNW 13 17 7 9 1004.4 1004.2 0.0
05/02:00pm 31.8 35.5 23.9 63 5.5 NW 11 19 6 10 1004.7 1004.5 0.0
05/01:30pm 31.0 34.4 24.1 66 4.8 NW 13 20 7 11 1005.2 1005.0 0.0
05/01:00pm 31.0 33.9 24.4 68 4.6 NNW 17 24 9 13 1005.5 1005.3 0.0
05/12:30pm 31.2 35.1 24.3 66 4.8 NNW 11 22 6 12 1005.7 1005.5 0.0
05/12:00pm 31.7 35.6 24.8 67 4.9 NNW 13 19 7 10 1006.0 1005.8 0.0
05/11:30am 31.7 35.6 23.0 60 6.0 NNE 7 11 4 6 1006.3 1006.1 0.0
05/11:00am 31.6 35.5 22.9 60 6.0 NE 7 11 4 6 1006.5 1006.3 0.0
05/10:30am 31.6 36.1 23.7 63 5.5 SSE 6 9 3 5 1006.8 1006.6 2.6
05/10:00am 30.9 35.3 23.5 64 5.1 SE 6 9 3 5 1006.7 1006.5 2.6
05/09:30am 29.8 33.5 23.3 68 4.5 ENE 9 13 5 7 1006.8 1006.6 2.6
05/09:00am 29.8 35.4 23.5 69 4.3 CALM 0 4 0 2 1006.7 1006.5 2.4
05/08:30am 29.0 33.7 23.4 72 3.9 SE 4 7 2 4 1006.6 1006.4 2.4
05/08:00am 27.3 32.0 22.7 76 3.1 SW 2 6 1 3 1006.4 1006.2 2.4
05/07:30am 25.9 30.6 23.4 86 1.7 E 4 9 2 5 1006.1 1005.9 2.4
05/07:00am 25.8 31.1 23.1 85 1.8 CALM 0 0 0 0 1006.0 1005.8 2.4
05/06:30am 25.9 29.8 22.6 82 2.2 E 6 9 3 5 1005.9 1005.7 2.4
05/06:00am 25.7 29.7 22.8 84 2.0 E 6 9 3 5 1005.6 1005.4 2.4
05/05:30am 25.2 29.9 22.7 86 1.7 E 2 7 1 4 1005.2 1005.0 2.4
05/05:00am 25.0 28.9 22.9 88 1.4 ENE 7 9 4 5 1005.0 1004.8 2.4
05/04:30am 24.6 29.0 22.8 90 1.2 NE 4 7 2 4 1004.7 1004.5 2.4
05/04:00am 24.7 29.5 22.8 89 1.3 NE 2 7 1 4 1004.5 1004.3 2.4
05/03:30am 25.1 29.2 23.0 88 1.4 S 6 7 3 4 1004.4 1004.2 2.4
05/03:00am 24.9 29.7 22.8 88 1.4 SSE 2 9 1 5 1004.4 1004.2 2.4
05/02:30am 25.1 30.3 22.8 87 1.6 CALM 0 6 0 3 1004.3 1004.1 2.4
05/02:00am 25.5 29.5 22.8 85 1.8 S 6 9 3 5 1004.4 1004.2 2.4
05/01:30am 25.8 29.8 22.7 83 2.1 S 6 7 3 4 1004.9 1004.7 2.4
05/01:00am 25.5 31.3 23.9 91 1.1 CALM 0 0 0 0 1005.2 1005.0 2.4
05/12:30am 25.4 30.8 23.3 88 1.4 CALM 0 0 0 0 1005.6 1005.4 2.4
05/12:00am 25.4 29.6 23.1 87 1.6 SSW 6 6 3 3 1005.7 1005.5 2.4
 
Date/Time
CST
Temp
°C
App
Temp
°C
Dew
Point
°C
Rel
Hum
%
Delta-T
°C
Wind Press
QNH
hPa
Press
MSL
hPa
Rain since
9am
mm
Dir  Spd
km/h
Gust
km/h
Spd
kts
Gust
kts
04/11:30pm 25.7 31.3 23.6 88 1.4 CALM 0 0 0 0 1005.8 1005.6 2.4
04/11:00pm 25.8 31.1 23.1 85 1.8 CALM 0 0 0 0 1005.9 1005.7 2.4
04/10:30pm 26.2 31.3 24.1 88 1.4 S 4 6 2 3 1005.9 1005.7 2.4
04/10:00pm 26.0 31.2 23.5 86 1.7 SW 2 6 1 3 1005.9 1005.7 2.2
04/09:30pm 26.0 31.4 23.3 85 1.8 CALM 0 0 0 0 1005.6 1005.4 2.2
04/09:00pm 25.9 31.5 23.6 87 1.6 CALM 0 0 0 0 1005.2 1005.0 2.2
04/08:30pm 26.1 29.8 22.2 79 2.6 SSW 6 9 3 5 1004.8 1004.6 2.2
04/08:00pm 26.6 29.8 21.6 74 3.3 S 7 9 4 5 1004.2 1004.0 2.2
04/07:30pm 26.5 30.6 23.0 81 2.4 S 6 7 3 4 1003.2 1003.0 2.2
04/07:00pm 27.0 31.5 22.2 75 3.2 ESE 2 9 1 5 1002.7 1002.5 2.2
04/06:30pm 27.1 29.4 20.7 68 4.2 NNW 9 17 5 9 1002.6 1002.4 2.2
04/06:22pm 27.1 29.3 21.2 70 3.9 NNW 11 17 6 9 1002.5 1002.3 2.2
04/06:12pm 27.2 29.6 20.8 68 4.2 NW 9 13 5 7 1002.2 1002.0 2.2
04/06:00pm 27.3 30.1 20.9 68 4.2 NNW 7 13 4 7 1001.9 1001.7 2.2
04/05:30pm 28.2 30.2 20.7 63 5.0 SSE 11 24 6 13 1001.2 1001.0 2.2
04/05:07pm 25.0 25.1 19.1 69 3.8 W 17 35 9 19 1001.5 1001.3 2.2
04/05:00pm 25.2 25.4 20.5 75 3.1 WSW 20 35 11 19 1001.7 1001.5 2.2
04/04:42pm 27.5 28.3 19.8 63 5.0 SSW 15 35 8 19 1002.6 1002.4 0.0
04/04:30pm 32.6 35.4 24.9 64 5.5 WNW 19 28 10 15 1002.0 1001.8 0.0
04/04:17pm 34.3 38.3 26.2 62 5.8 NW 17 26 9 14 1001.3 1001.1 0.0
04/04:00pm 34.7 37.7 22.7 49 8.3 NW 11 19 6 10 1001.5 1001.3 0.0
04/03:30pm 34.6 38.5 23.0 51 8.1 N 7 15 4 8 1002.2 1002.0 0.0
04/03:00pm 35.1 40.2 24.1 53 7.7 NNW 4 13 2 7 1002.5 1002.3 0.0
04/02:30pm 34.6 38.2 23.0 51 8.1 SSW 9 15 5 8 1002.9 1002.7 0.0
04/02:00pm 34.1 38.9 24.4 57 6.8 WSW 7 15 4 8 1003.3 1003.1 0.0
04/01:30pm 33.9 38.2 24.2 57 6.8 SSW 9 13 5 7 1003.7 1003.5 0.0
04/01:00pm 33.6 37.0 22.7 53 7.5 SW 9 13 5 7 1004.1 1003.9 0.0
04/12:30pm 32.4 36.7 24.2 62 5.8 W 9 20 5 11 1004.6 1004.4 0.0
04/12:00pm 32.0 35.6 23.8 62 5.7 W 11 19 6 10 1005.0 1004.8 0.0
04/11:30am 31.7 35.6 24.3 65 5.2 WNW 11 22 6 12 1005.4 1005.2 0.0
04/11:00am 31.4 34.9 23.5 63 5.5 W 11 17 6 9 1005.7 1005.5 0.0
04/10:30am 31.3 36.2 24.7 68 4.6 W 7 15 4 8 1005.8 1005.6 1.8
04/10:00am 30.1 33.7 23.0 65 4.9 W 9 13 5 7 1005.9 1005.7 1.8
04/09:30am 29.3 32.6 22.5 67 4.6 W 9 17 5 9 1006.0 1005.8 1.6
04/09:00am 28.3 32.8 22.3 70 4.1 SW 2 7 1 4 1005.8 1005.6 1.6
04/08:30am 27.2 32.3 22.6 76 3.1 CALM 0 7 0 4 1006.1 1005.9 1.6
04/08:00am 26.6 31.9 23.1 81 2.4 CALM 0 0 0 0 1005.8 1005.6 1.6
04/07:30am 24.3 29.5 22.9 92 0.9 CALM 0 0 0 0 1005.4 1005.2 1.6
04/07:00am 23.7 28.6 22.3 92 0.9 CALM 0 0 0 0 1005.0 1004.8 1.6
04/06:30am 24.0 29.1 22.6 92 0.9 CALM 0 0 0 0 1005.0 1004.8 1.6
04/06:00am 24.3 29.4 22.6 90 1.1 CALM 0 0 0 0 1004.7 1004.5 1.6
04/05:30am 24.6 28.4 22.7 89 1.3 S 7 11 4 6 1004.3 1004.1 1.6
04/05:00am 24.6 30.2 23.6 94 0.7 CALM 0 0 0 0 1004.1 1003.9 1.6
04/04:30am 24.5 29.9 23.3 93 0.8 CALM 0 0 0 0 1003.8 1003.6 1.6
04/04:00am 24.7 30.3 23.5 93 0.8 CALM 0 0 0 0 1003.9 1003.7 1.6
04/03:30am 24.8 30.3 23.4 92 1.0 CALM 0 0 0 0 1004.1 1003.9 1.6
04/03:00am 25.1 30.5 23.3 90 1.2 CALM 0 0 0 0 1004.2 1004.0 1.6
04/02:30am 25.3 30.9 23.5 90 1.2 CALM 0 6 0 3 1004.3 1004.1 1.6
04/02:00am 25.4 31.0 23.6 90 1.2 CALM 0 0 0 0 1004.6 1004.4 1.6
04/01:30am 25.5 29.9 22.8 85 1.8 S 4 7 2 4 1005.0 1004.8 1.6
04/01:00am 25.2 29.8 23.1 88 1.4 SSE 4 9 2 5 1005.1 1004.9 1.6

Other formats

Comma delimited format used in spreadsheet applications
http://www.bom.gov.au/fwo/IDD60801/IDD60801.94100.axf

JavaScript Object Notation format (JSON) in row-major order
http://www.bom.gov.au/fwo/IDD60801/IDD60801.94100.json

Data quality

Most of these data are generated automatically and are frequently updated. Quality checks on data are not normally performed. It is possible for incorrect values to appear. Refer to information at About Latest Weather Observations and please check the disclaimer before using these data.